createdAt,value
2022-09-10T00:01:02.639Z,14.30
2022-09-10T00:03:30.528Z,14.30
2022-09-10T00:05:58.343Z,14.30
2022-09-10T00:08:27.679Z,14.30
2022-09-10T00:10:55.601Z,14.30
2022-09-10T00:13:23.531Z,14.30
2022-09-10T00:15:52.406Z,14.30
2022-09-10T00:18:22.059Z,14.30
2022-09-10T00:20:50.920Z,14.30
2022-09-10T00:23:20.634Z,14.20
2022-09-10T00:25:49.940Z,14.30
2022-09-10T00:28:17.753Z,14.30
2022-09-10T00:30:46.578Z,14.30
2022-09-10T00:33:14.641Z,14.20
2022-09-10T00:35:42.529Z,14.30
2022-09-10T00:38:11.174Z,14.30
2022-09-10T00:40:39.480Z,14.40
2022-09-10T00:43:12.577Z,14.40
2022-09-10T00:45:41.031Z,14.40
2022-09-10T00:48:15.291Z,14.40
2022-09-10T00:50:45.209Z,14.40
2022-09-10T00:53:15.549Z,14.40
2022-09-10T00:55:45.059Z,14.40
2022-09-10T00:58:15.151Z,14.40
2022-09-10T01:00:43.264Z,14.40
2022-09-10T01:03:12.169Z,14.40
2022-09-10T01:05:42.372Z,14.50
2022-09-10T01:08:13.887Z,14.50
2022-09-10T01:10:49.807Z,14.50
2022-09-10T01:13:25.710Z,14.60
2022-09-10T01:15:57.902Z,14.60
2022-09-10T01:18:31.839Z,14.60
2022-09-10T01:21:02.402Z,14.60
2022-09-10T01:23:42.860Z,14.70
2022-09-10T01:26:15.045Z,14.70
2022-09-10T01:28:48.792Z,14.70
2022-09-10T01:31:21.103Z,14.70
2022-09-10T01:33:52.165Z,14.70
2022-09-10T01:36:22.271Z,14.70
2022-09-10T01:38:51.639Z,14.70
2022-09-10T01:41:22.142Z,14.70
2022-09-10T01:43:51.620Z,14.60
2022-09-10T01:46:26.665Z,14.60
2022-09-10T01:49:02.892Z,14.60
2022-09-10T01:51:36.882Z,14.60
2022-09-10T01:54:14.909Z,14.60
2022-09-10T01:56:47.716Z,14.60
2022-09-10T01:59:21.790Z,14.60
2022-09-10T02:01:51.739Z,14.50
2022-09-10T02:04:20.647Z,14.50
2022-09-10T02:06:50.038Z,14.50
2022-09-10T02:09:19.229Z,14.40
2022-09-10T02:11:49.199Z,14.40
2022-09-10T02:14:29.805Z,14.40
2022-09-10T02:17:25.298Z,14.30
2022-09-10T02:19:55.004Z,14.30
2022-09-10T02:22:24.099Z,14.30
2022-09-10T02:24:52.866Z,14.40
2022-09-10T02:27:20.807Z,14.50
2022-09-10T02:29:50.490Z,14.60
2022-09-10T02:32:18.388Z,14.60
2022-09-10T02:34:46.290Z,14.60
2022-09-10T02:37:14.120Z,14.60
2022-09-10T02:39:42.203Z,14.50
2022-09-10T02:42:10.235Z,14.50
2022-09-10T02:44:38.113Z,14.40
2022-09-10T02:47:11.695Z,14.40
2022-09-10T02:49:39.514Z,14.30
2022-09-10T02:52:08.625Z,14.30
2022-09-10T02:54:37.975Z,14.30
2022-09-10T02:57:05.885Z,14.30
2022-09-10T02:59:33.799Z,14.30
2022-09-10T03:02:01.780Z,14.30
2022-09-10T03:04:31.225Z,14.30
2022-09-10T03:06:59.135Z,14.30
2022-09-10T03:09:28.828Z,14.30
2022-09-10T03:11:56.741Z,14.20
2022-09-10T03:14:25.985Z,14.20
2022-09-10T03:16:53.990Z,14.20
2022-09-10T03:19:22.625Z,14.10
2022-09-10T03:21:52.956Z,14.10
2022-09-10T03:24:21.262Z,14.10
2022-09-10T03:26:49.101Z,14.10
2022-09-10T03:29:17.700Z,14.20
2022-09-10T03:31:46.672Z,14.20
2022-09-10T03:34:16.498Z,14.20
2022-09-10T03:36:47.580Z,14.20
2022-09-10T03:39:18.447Z,14.30
2022-09-10T03:41:46.755Z,14.20
2022-09-10T03:44:17.114Z,14.20
2022-09-10T03:46:45.504Z,14.20
2022-09-10T03:49:13.994Z,14.20
2022-09-10T03:51:42.345Z,14.20
2022-09-10T03:54:10.393Z,14.20
2022-09-10T03:56:41.560Z,14.30
2022-09-10T03:59:09.770Z,14.30
2022-09-10T04:01:37.963Z,14.40
2022-09-10T04:04:08.181Z,14.40
2022-09-10T04:06:37.172Z,14.50
2022-09-10T04:09:06.401Z,14.50
2022-09-10T04:11:34.811Z,14.50
2022-09-10T04:14:04.565Z,14.50
2022-09-10T04:16:32.620Z,14.50
2022-09-10T04:19:01.050Z,14.50
2022-09-10T04:21:30.096Z,14.50
2022-09-10T04:23:59.226Z,14.40
2022-09-10T04:26:27.198Z,14.50
2022-09-10T04:28:56.200Z,14.40
2022-09-10T04:31:25.526Z,14.40
2022-09-10T04:34:01.938Z,14.50
2022-09-10T04:36:30.450Z,14.50
2022-09-10T04:38:58.978Z,14.50
2022-09-10T04:41:27.354Z,14.50
2022-09-10T04:43:55.389Z,14.50
2022-09-10T04:46:25.543Z,14.50
2022-09-10T04:48:55.562Z,14.60
2022-09-10T04:51:25.246Z,14.50
2022-09-10T04:53:55.230Z,14.60
2022-09-10T04:56:27.703Z,14.60
2022-09-10T04:58:55.623Z,14.60
2022-09-10T05:01:24.871Z,14.60
2022-09-10T05:03:54.280Z,14.60
2022-09-10T05:06:23.252Z,14.60
2022-09-10T05:08:51.428Z,14.60
2022-09-10T05:11:20.263Z,14.60
2022-09-10T05:13:48.848Z,14.60
2022-09-10T05:16:21.279Z,14.60
2022-09-10T05:18:50.762Z,14.60
2022-09-10T05:21:19.705Z,14.60
2022-09-10T05:23:47.889Z,14.60
2022-09-10T05:26:15.698Z,14.60
2022-09-10T05:28:43.661Z,14.60
2022-09-10T05:31:17.246Z,14.60
2022-09-10T05:33:46.209Z,14.70
2022-09-10T05:36:15.714Z,14.70
2022-09-10T05:38:46.344Z,14.70
2022-09-10T05:41:15.588Z,14.70
2022-09-10T05:43:49.622Z,14.80
2022-09-10T05:46:17.601Z,14.80
2022-09-10T05:48:49.750Z,14.80
2022-09-10T05:51:21.426Z,14.80
2022-09-10T05:53:51.270Z,14.80
2022-09-10T05:56:20.524Z,14.80
2022-09-10T05:58:48.404Z,14.90
2022-09-10T06:01:16.273Z,14.90
2022-09-10T06:03:45.244Z,14.90
2022-09-10T06:06:13.275Z,14.90
2022-09-10T06:08:53.915Z,14.90
2022-09-10T06:11:35.799Z,14.90
2022-09-10T06:14:03.735Z,14.80
2022-09-10T06:16:32.672Z,14.80
2022-09-10T06:19:03.014Z,14.90
2022-09-10T06:21:31.125Z,14.90
2022-09-10T06:24:00.805Z,14.90
2022-09-10T06:26:32.821Z,14.80
2022-09-10T06:29:06.158Z,14.80
2022-09-10T06:31:35.448Z,14.90
2022-09-10T06:34:03.887Z,14.90
2022-09-10T06:36:33.906Z,14.90
2022-09-10T06:39:04.329Z,14.90
2022-09-10T06:41:44.270Z,14.90
2022-09-10T06:44:31.038Z,15.00
2022-09-10T06:47:55.810Z,15.00
2022-09-10T06:50:01.553Z,15.20
2022-09-10T06:52:31.628Z,15.20
2022-09-10T06:55:06.226Z,15.20
2022-09-10T06:57:40.164Z,15.20
2022-09-10T07:00:09.532Z,15.30
2022-09-10T07:02:39.359Z,15.30
2022-09-10T07:05:08.334Z,15.30
2022-09-10T07:07:38.922Z,15.30
2022-09-10T07:10:10.874Z,15.20
2022-09-10T07:12:40.009Z,15.20
2022-09-10T07:15:09.732Z,15.20
2022-09-10T07:17:37.973Z,15.30
2022-09-10T07:20:08.440Z,15.40
2022-09-10T07:22:44.801Z,15.50
2022-09-10T07:25:15.907Z,15.60
2022-09-10T07:28:13.281Z,15.60
2022-09-10T07:30:44.674Z,15.60
2022-09-10T07:33:14.942Z,15.60
2022-09-10T07:35:44.975Z,15.60
2022-09-10T07:38:16.871Z,15.70
2022-09-10T07:40:48.305Z,15.60
2022-09-10T07:43:17.493Z,15.60
2022-09-10T07:45:45.858Z,15.60
2022-09-10T07:48:13.823Z,15.60
2022-09-10T07:50:42.006Z,15.70
2022-09-10T07:53:09.881Z,15.80
2022-09-10T07:55:38.788Z,15.90
2022-09-10T07:58:10.086Z,16.30
2022-09-10T08:00:43.382Z,16.70
2022-09-10T08:03:12.359Z,16.90
2022-09-10T08:05:41.030Z,16.90
2022-09-10T08:08:10.522Z,16.90
2022-09-10T08:10:38.534Z,17.00
2022-09-10T08:13:10.041Z,16.90
2022-09-10T08:15:42.101Z,16.80
2022-09-10T08:18:11.230Z,16.70
2022-09-10T08:20:40.047Z,16.90
2022-09-10T08:23:08.213Z,17.20
2022-09-10T08:25:36.639Z,17.50
2022-09-10T08:28:04.590Z,17.90
2022-09-10T08:30:34.478Z,18.10
2022-09-10T08:33:02.867Z,18.20
2022-09-10T08:35:30.979Z,18.20
2022-09-10T08:37:58.847Z,18.30
2022-09-10T08:40:27.034Z,18.30
2022-09-10T08:42:58.455Z,18.20
2022-09-10T08:45:30.016Z,18.10
2022-09-10T08:48:02.531Z,18.30
2022-09-10T08:50:36.745Z,18.50
2022-09-10T08:53:14.288Z,18.80
2022-09-10T08:55:48.724Z,18.90
2022-09-10T08:58:20.771Z,19.00
2022-09-10T09:00:53.309Z,18.90
2022-09-10T09:03:27.574Z,18.80
2022-09-10T09:05:57.277Z,18.60
2022-09-10T09:08:34.480Z,18.30
2022-09-10T09:11:10.855Z,18.20
2022-09-10T09:13:43.902Z,18.00
2022-09-10T09:16:18.180Z,17.90
2022-09-10T09:19:01.855Z,17.90
2022-09-10T09:21:36.677Z,17.90
2022-09-10T09:24:13.534Z,18.00
2022-09-10T09:26:49.155Z,18.10
2022-09-10T09:29:20.171Z,18.10
2022-09-10T09:31:51.013Z,18.00
2022-09-10T09:34:22.744Z,18.00
2022-09-10T09:36:52.784Z,18.20
2022-09-10T09:39:25.819Z,18.30
2022-09-10T09:41:58.989Z,18.30
2022-09-10T09:44:29.768Z,18.30
2022-09-10T09:46:57.880Z,18.40
2022-09-10T09:49:27.217Z,18.50
2022-09-10T09:51:56.643Z,18.50
2022-09-10T09:57:17.034Z,18.20
2022-09-10T09:59:45.018Z,17.80
2022-09-10T10:02:13.936Z,17.30
2022-09-10T10:04:54.137Z,17.10
2022-09-10T10:07:26.120Z,16.90
2022-09-10T10:09:54.371Z,16.80
2022-09-10T10:12:23.452Z,16.70
2022-09-10T10:14:51.453Z,16.70
2022-09-10T10:17:27.346Z,16.80
2022-09-10T10:20:00.816Z,17.00
2022-09-10T10:22:30.130Z,17.10
2022-09-10T10:24:58.112Z,17.00
2022-09-10T10:27:30.016Z,16.90
2022-09-10T10:30:00.198Z,16.80
2022-09-10T10:32:34.543Z,16.80
2022-09-10T10:35:11.324Z,16.70
2022-09-10T10:37:47.699Z,16.70
2022-09-10T10:40:19.442Z,16.60
2022-09-10T10:42:54.086Z,16.70
2022-09-10T10:45:33.999Z,16.70
2022-09-10T10:48:04.870Z,16.80
2022-09-10T10:50:38.230Z,16.70
2022-09-10T10:53:15.835Z,16.60
2022-09-10T10:55:45.451Z,16.50
2022-09-10T10:58:24.987Z,16.50
2022-09-10T11:00:55.299Z,16.40
2022-09-10T11:03:25.818Z,16.50
2022-09-10T11:05:58.118Z,16.70
2022-09-10T11:08:28.528Z,16.90
2022-09-10T11:10:58.621Z,17.10
2022-09-10T11:13:31.962Z,17.30
2022-09-10T11:16:04.370Z,17.60
2022-09-10T11:18:33.932Z,17.80
2022-09-10T11:21:06.202Z,18.00
2022-09-10T11:23:38.090Z,18.10
2022-09-10T11:26:08.479Z,18.20
2022-09-10T11:28:37.466Z,18.40
2022-09-10T11:31:09.828Z,18.80
2022-09-10T11:33:41.692Z,19.20
2022-09-10T11:36:12.486Z,19.30
2022-09-10T11:38:45.928Z,19.60
2022-09-10T11:41:17.657Z,19.90
2022-09-10T11:43:48.554Z,20.10
2022-09-10T11:46:17.909Z,20.20
2022-09-10T11:48:48.478Z,20.50
2022-09-10T11:51:20.189Z,20.70
2022-09-10T11:53:48.318Z,20.90
2022-09-10T11:56:27.487Z,21.20
2022-09-10T11:59:13.292Z,21.00
2022-09-10T12:01:51.921Z,20.70
2022-09-10T12:04:44.637Z,20.80
2022-09-10T12:07:21.092Z,21.40
2022-09-10T12:09:52.055Z,21.50
2022-09-10T12:12:25.226Z,21.80
2022-09-10T12:14:54.095Z,22.10
2022-09-10T12:17:27.155Z,22.80
2022-09-10T12:19:56.637Z,23.30
2022-09-10T12:22:29.301Z,24.00
2022-09-10T12:25:00.962Z,24.90
2022-09-10T12:27:44.804Z,25.30
2022-09-10T12:30:33.264Z,25.20
2022-09-10T12:33:02.458Z,24.80
2022-09-10T12:35:44.200Z,24.50
2022-09-10T12:38:30.855Z,23.80
2022-09-10T12:41:00.170Z,23.50
2022-09-10T12:43:49.012Z,23.80
2022-09-10T12:46:18.594Z,24.70
2022-09-10T12:48:47.557Z,25.80
2022-09-10T12:51:23.941Z,25.70
2022-09-10T12:53:57.644Z,25.10
2022-09-10T12:56:40.395Z,24.60
2022-09-10T12:59:19.540Z,24.80
2022-09-10T13:01:48.793Z,25.00
2022-09-10T13:04:21.490Z,24.60
2022-09-10T13:06:49.494Z,24.20
2022-09-10T13:09:19.137Z,23.40
2022-09-10T13:11:48.986Z,22.70
2022-09-10T13:14:20.675Z,22.20
2022-09-10T13:16:48.783Z,21.80
2022-09-10T13:19:35.348Z,22.00
2022-09-10T13:22:03.678Z,22.50
2022-09-10T13:24:38.947Z,23.10
2022-09-10T13:27:19.907Z,23.80
2022-09-10T13:29:52.662Z,24.50
2022-09-10T13:32:27.270Z,24.40
2022-09-10T13:35:14.432Z,24.00
2022-09-10T13:37:56.700Z,23.60
2022-09-10T13:40:38.706Z,23.20
2022-09-10T13:43:18.782Z,23.30
2022-09-10T13:45:50.300Z,23.30
2022-09-10T13:48:20.418Z,23.30
2022-09-10T13:50:50.274Z,23.60
2022-09-10T13:53:19.016Z,23.90
2022-09-10T13:55:50.379Z,24.10
2022-09-10T13:58:19.625Z,23.90
2022-09-10T14:00:53.480Z,23.40
2022-09-10T14:03:22.515Z,23.10
2022-09-10T14:05:51.572Z,22.80
2022-09-10T14:08:21.165Z,22.40
2022-09-10T14:10:50.811Z,22.60
2022-09-10T14:13:20.030Z,23.20
2022-09-10T14:15:48.192Z,23.60
2022-09-10T14:18:17.657Z,24.00
2022-09-10T14:20:45.544Z,23.90
2022-09-10T14:23:14.782Z,24.20
2022-09-10T14:25:43.797Z,24.60
2022-09-10T14:28:32.509Z,24.50
2022-09-10T14:31:21.544Z,24.00
2022-09-10T14:33:50.901Z,23.50
2022-09-10T14:36:21.846Z,23.30
2022-09-10T14:38:54.390Z,23.30
2022-09-10T14:41:24.615Z,22.70
2022-09-10T14:44:07.385Z,22.40
2022-09-10T14:46:49.030Z,22.00
2022-09-10T14:49:19.095Z,21.80
2022-09-10T14:51:47.221Z,21.80
2022-09-10T14:54:15.502Z,21.90
2022-09-10T14:56:45.536Z,22.10
2022-09-10T14:59:15.526Z,22.30
2022-09-10T15:01:43.826Z,22.40
2022-09-10T15:04:14.075Z,22.20
2022-09-10T15:06:44.533Z,22.00
2022-09-10T15:09:13.199Z,21.70
2022-09-10T15:11:45.456Z,21.50
2022-09-10T15:14:15.362Z,21.40
2022-09-10T15:16:43.942Z,21.40
2022-09-10T15:19:12.330Z,21.20
2022-09-10T15:21:40.429Z,21.10
2022-09-10T15:24:10.694Z,20.90
2022-09-10T15:26:38.785Z,20.80
2022-09-10T15:29:06.661Z,20.90
2022-09-10T15:31:35.869Z,20.80
2022-09-10T15:34:04.229Z,20.80
2022-09-10T15:36:32.209Z,20.60
2022-09-10T15:39:00.165Z,20.50
2022-09-10T15:41:29.651Z,20.50
2022-09-10T15:43:57.957Z,20.30
2022-09-10T15:46:26.080Z,19.50
2022-09-10T15:48:55.590Z,18.90
2022-09-10T15:51:24.456Z,18.60
2022-09-10T15:53:53.308Z,18.40
2022-09-10T15:56:21.831Z,18.30
2022-09-10T15:58:51.777Z,18.30
2022-09-10T16:01:20.917Z,18.40
2022-09-10T16:03:50.128Z,18.60
2022-09-10T16:06:19.343Z,18.70
2022-09-10T16:08:50.789Z,18.90
2022-09-10T16:11:19.094Z,19.10
2022-09-10T16:13:47.258Z,19.30
2022-09-10T16:16:17.604Z,19.20
2022-09-10T16:18:45.793Z,19.00
2022-09-10T16:21:15.700Z,18.70
2022-09-10T16:23:44.082Z,18.50
2022-09-10T16:26:15.949Z,18.30
2022-09-10T16:28:48.956Z,18.20
2022-09-10T16:31:18.974Z,18.20
2022-09-10T16:33:48.375Z,18.10
2022-09-10T16:36:18.985Z,18.10
2022-09-10T16:38:48.584Z,18.10
2022-09-10T16:41:17.601Z,18.20
2022-09-10T16:43:45.540Z,18.20
2022-09-10T16:46:13.606Z,18.20
2022-09-10T16:48:43.524Z,18.00
2022-09-10T16:51:13.977Z,17.90
2022-09-10T16:53:42.810Z,17.80
2022-09-10T16:56:12.157Z,17.70
2022-09-10T16:58:40.398Z,17.60
2022-09-10T17:01:09.888Z,17.60
2022-09-10T17:03:41.098Z,17.60
2022-09-10T17:06:15.714Z,17.60
2022-09-10T17:08:45.256Z,17.60
2022-09-10T17:11:14.293Z,17.60
2022-09-10T17:13:42.714Z,17.60
2022-09-10T17:16:16.456Z,17.60
2022-09-10T17:18:44.788Z,17.60
2022-09-10T17:21:14.510Z,17.60
2022-09-10T17:23:43.961Z,17.60
2022-09-10T17:26:11.824Z,17.60
2022-09-10T17:28:40.374Z,17.70
2022-09-10T17:31:08.370Z,17.60
2022-09-10T17:33:36.423Z,17.60
2022-09-10T17:36:05.150Z,17.60
2022-09-10T17:38:35.105Z,17.50
2022-09-10T17:41:05.073Z,17.50
2022-09-10T17:43:36.766Z,17.50
2022-09-10T17:46:04.905Z,17.40
2022-09-10T17:48:33.258Z,17.40
2022-09-10T17:51:01.100Z,17.40
2022-09-10T17:53:29.106Z,17.30
2022-09-10T17:56:02.426Z,17.30
2022-09-10T17:58:32.869Z,17.20
2022-09-10T18:01:01.730Z,17.20
2022-09-10T18:03:29.905Z,17.30
2022-09-10T18:05:57.971Z,17.20
2022-09-10T18:08:26.045Z,17.20
2022-09-10T18:11:01.328Z,17.30
2022-09-10T18:13:29.752Z,17.20
2022-09-10T18:15:59.024Z,17.30
2022-09-10T18:18:26.997Z,17.20
2022-09-10T18:20:56.381Z,17.20
2022-09-10T18:23:24.392Z,17.10
2022-09-10T18:25:52.626Z,17.00
2022-09-10T18:28:20.798Z,17.00
2022-09-10T18:30:48.675Z,16.90
2022-09-10T18:33:18.812Z,16.80
2022-09-10T18:35:47.561Z,16.80
2022-09-10T18:38:15.601Z,16.70
2022-09-10T18:40:43.835Z,16.70
2022-09-10T18:43:12.370Z,16.70
2022-09-10T18:45:40.330Z,16.70
2022-09-10T18:48:08.542Z,16.70
2022-09-10T18:50:37.977Z,16.60
2022-09-10T18:53:06.356Z,16.60
2022-09-10T18:55:35.848Z,16.60
2022-09-10T18:58:03.931Z,16.50
2022-09-10T19:00:32.714Z,16.50
2022-09-10T19:03:00.787Z,16.50
2022-09-10T19:05:28.709Z,16.50
2022-09-10T19:07:58.132Z,16.50
2022-09-10T19:10:26.138Z,16.50
2022-09-10T19:12:54.510Z,16.50
2022-09-10T19:15:22.795Z,16.50
2022-09-10T19:17:50.703Z,16.50
2022-09-10T19:20:18.637Z,16.40
2022-09-10T19:22:46.727Z,16.40
2022-09-10T19:25:16.424Z,16.40
2022-09-10T19:27:45.172Z,16.50
2022-09-10T19:30:14.377Z,16.50
2022-09-10T19:32:42.394Z,16.50
2022-09-10T19:35:11.455Z,16.40
2022-09-10T19:37:39.679Z,16.40
2022-09-10T19:40:08.230Z,16.40
2022-09-10T19:42:37.613Z,16.40
2022-09-10T19:45:09.936Z,16.40
2022-09-10T19:47:38.365Z,16.40
2022-09-10T19:50:06.961Z,16.40
2022-09-10T19:52:35.402Z,16.40
2022-09-10T19:55:03.720Z,16.40
2022-09-10T19:57:31.592Z,16.40
2022-09-10T20:00:00.730Z,16.40
2022-09-10T20:02:28.600Z,16.40
2022-09-10T20:04:56.627Z,16.40
2022-09-10T20:07:25.010Z,16.40
2022-09-10T20:09:53.382Z,16.50
2022-09-10T20:12:22.618Z,16.50
2022-09-10T20:14:50.571Z,16.60
2022-09-10T20:17:20.069Z,16.60
2022-09-10T20:19:48.694Z,16.60
2022-09-10T20:22:17.432Z,16.60
2022-09-10T20:24:45.315Z,16.60
2022-09-10T20:27:13.194Z,16.50
2022-09-10T20:29:41.514Z,16.50
2022-09-10T20:32:09.386Z,16.40
2022-09-10T20:34:38.594Z,16.40
2022-09-10T20:37:06.541Z,16.40
2022-09-10T20:39:35.570Z,16.40
2022-09-10T20:42:04.663Z,16.50
2022-09-10T20:44:32.949Z,16.50
2022-09-10T20:47:00.850Z,16.50
2022-09-10T20:49:28.783Z,16.40
2022-09-10T20:51:59.406Z,16.40
2022-09-10T20:54:27.365Z,16.40
2022-09-10T20:56:55.364Z,16.40
2022-09-10T20:59:27.517Z,16.50
2022-09-10T21:01:56.723Z,16.50
2022-09-10T21:04:24.890Z,16.60
2022-09-10T21:06:52.817Z,16.60
2022-09-10T21:09:21.983Z,16.70
2022-09-10T21:11:50.164Z,16.70
2022-09-10T21:14:18.563Z,16.70
2022-09-10T21:16:47.193Z,16.70
2022-09-10T21:19:15.719Z,16.70
2022-09-10T21:21:44.885Z,16.70
2022-09-10T21:24:13.706Z,16.50
2022-09-10T21:26:43.295Z,16.40
2022-09-10T21:29:15.167Z,16.30
2022-09-10T21:31:43.684Z,16.20
2022-09-10T21:34:12.023Z,16.10
2022-09-10T21:36:41.016Z,16.00
2022-09-10T21:39:12.614Z,15.90
2022-09-10T21:41:41.690Z,15.80
2022-09-10T21:44:12.147Z,15.80
2022-09-10T21:46:42.263Z,15.80
2022-09-10T21:49:10.237Z,15.70
2022-09-10T21:51:38.627Z,15.70
2022-09-10T21:54:06.716Z,15.60
2022-09-10T21:56:34.769Z,15.60
2022-09-10T21:59:02.663Z,15.60
2022-09-10T22:01:32.385Z,15.60
2022-09-10T22:04:01.211Z,15.60
2022-09-10T22:06:29.799Z,15.60
2022-09-10T22:08:59.057Z,15.60
2022-09-10T22:11:30.265Z,15.60
2022-09-10T22:14:00.944Z,15.60
2022-09-10T22:16:30.962Z,15.60
2022-09-10T22:19:01.444Z,15.60
2022-09-10T22:21:29.813Z,15.60
2022-09-10T22:23:58.050Z,15.70
2022-09-10T22:26:28.225Z,15.70
2022-09-10T22:28:56.939Z,15.70
2022-09-10T22:31:25.846Z,15.70
2022-09-10T22:33:54.571Z,15.70
2022-09-10T22:36:24.714Z,15.70
2022-09-10T22:38:53.765Z,15.70
2022-09-10T22:41:23.161Z,15.60
2022-09-10T22:43:51.081Z,15.60
2022-09-10T22:46:20.229Z,15.60
2022-09-10T22:48:48.443Z,15.60
2022-09-10T22:51:17.761Z,15.60
2022-09-10T22:53:47.792Z,15.60
2022-09-10T22:56:17.662Z,15.60
2022-09-10T22:58:45.562Z,15.60
2022-09-10T23:01:15.211Z,15.60
2022-09-10T23:03:48.101Z,15.60
2022-09-10T23:06:22.327Z,15.50
2022-09-10T23:08:53.406Z,15.60
2022-09-10T23:11:22.600Z,15.60
2022-09-10T23:13:52.400Z,15.60
2022-09-10T23:16:22.070Z,15.60
2022-09-10T23:18:51.524Z,15.60
2022-09-10T23:21:20.097Z,15.70
2022-09-10T23:23:50.110Z,15.70
2022-09-10T23:26:19.309Z,15.70
2022-09-10T23:28:47.198Z,15.60
2022-09-10T23:31:16.497Z,15.60
2022-09-10T23:33:45.123Z,15.70
2022-09-10T23:36:14.236Z,15.60
2022-09-10T23:38:43.739Z,15.70
2022-09-10T23:41:12.828Z,15.70
2022-09-10T23:43:42.105Z,15.80
2022-09-10T23:46:10.567Z,15.80
2022-09-10T23:48:38.975Z,15.80
2022-09-10T23:51:07.266Z,15.80
2022-09-10T23:53:35.263Z,15.80
2022-09-10T23:56:03.776Z,15.90
2022-09-10T23:58:31.670Z,15.90
